sensor_id;sensor_type;location;lat;lon;timestamp;P1;durP1;ratioP1;P2;durP2;ratioP2
78148;SDS011;67396;42.664;23.382;2023-02-02T00:01:43;4.18;;;1.40;;
78148;SDS011;67396;42.664;23.382;2023-02-02T00:04:15;3.95;;;1.30;;
78148;SDS011;67396;42.664;23.382;2023-02-02T00:06:45;6.28;;;1.67;;
78148;SDS011;67396;42.664;23.382;2023-02-02T00:09:12;4.57;;;1.45;;
78148;SDS011;67396;42.664;23.382;2023-02-02T00:11:41;3.58;;;1.33;;
78148;SDS011;67396;42.664;23.382;2023-02-02T00:14:08;5.50;;;1.60;;
78148;SDS011;67396;42.664;23.382;2023-02-02T00:16:38;5.20;;;1.58;;
78148;SDS011;67396;42.664;23.382;2023-02-02T00:19:10;3.65;;;1.30;;
78148;SDS011;67396;42.664;23.382;2023-02-02T00:21:36;2.33;;;1.52;;
78148;SDS011;67396;42.664;23.382;2023-02-02T00:24:02;3.75;;;1.58;;
78148;SDS011;67396;42.664;23.382;2023-02-02T00:26:29;2.72;;;1.48;;
78148;SDS011;67396;42.664;23.382;2023-02-02T00:28:54;1.67;;;0.93;;
78148;SDS011;67396;42.664;23.382;2023-02-02T00:31:20;2.90;;;1.65;;
78148;SDS011;67396;42.664;23.382;2023-02-02T00:33:47;3.67;;;1.55;;
78148;SDS011;67396;42.664;23.382;2023-02-02T00:36:13;2.63;;;1.38;;
78148;SDS011;67396;42.664;23.382;2023-02-02T00:38:39;6.13;;;1.23;;
78148;SDS011;67396;42.664;23.382;2023-02-02T00:41:05;2.67;;;1.52;;
78148;SDS011;67396;42.664;23.382;2023-02-02T00:43:31;3.85;;;1.52;;
78148;SDS011;67396;42.664;23.382;2023-02-02T00:45:56;4.63;;;1.55;;
78148;SDS011;67396;42.664;23.382;2023-02-02T00:48:22;5.65;;;1.88;;
78148;SDS011;67396;42.664;23.382;2023-02-02T00:50:49;2.45;;;1.70;;
78148;SDS011;67396;42.664;23.382;2023-02-02T00:53:15;4.47;;;1.70;;
78148;SDS011;67396;42.664;23.382;2023-02-02T00:55:41;3.35;;;1.55;;
78148;SDS011;67396;42.664;23.382;2023-02-02T00:58:06;3.67;;;2.08;;
78148;SDS011;67396;42.664;23.382;2023-02-02T01:00:32;3.47;;;1.90;;
78148;SDS011;67396;42.664;23.382;2023-02-02T01:02:57;3.67;;;1.50;;
78148;SDS011;67396;42.664;23.382;2023-02-02T01:05:28;3.65;;;1.33;;
78148;SDS011;67396;42.664;23.382;2023-02-02T01:07:54;4.63;;;2.00;;
78148;SDS011;67396;42.664;23.382;2023-02-02T01:10:20;4.28;;;2.13;;
78148;SDS011;67396;42.664;23.382;2023-02-02T01:12:45;3.03;;;1.80;;
78148;SDS011;67396;42.664;23.382;2023-02-02T01:15:11;3.65;;;1.50;;
78148;SDS011;67396;42.664;23.382;2023-02-02T01:17:37;3.97;;;1.90;;
78148;SDS011;67396;42.664;23.382;2023-02-02T01:20:02;3.60;;;1.50;;
78148;SDS011;67396;42.664;23.382;2023-02-02T01:22:29;2.22;;;1.20;;
78148;SDS011;67396;42.664;23.382;2023-02-02T01:24:54;2.83;;;1.50;;
78148;SDS011;67396;42.664;23.382;2023-02-02T01:27:20;6.25;;;2.45;;
78148;SDS011;67396;42.664;23.382;2023-02-02T01:29:45;5.65;;;2.05;;
78148;SDS011;67396;42.664;23.382;2023-02-02T01:32:11;3.45;;;2.38;;
78148;SDS011;67396;42.664;23.382;2023-02-02T01:34:36;7.05;;;3.53;;
78148;SDS011;67396;42.664;23.382;2023-02-02T01:37:05;5.22;;;2.83;;
78148;SDS011;67396;42.664;23.382;2023-02-02T01:39:31;5.15;;;3.08;;
78148;SDS011;67396;42.664;23.382;2023-02-02T01:41:57;7.10;;;3.88;;
78148;SDS011;67396;42.664;23.382;2023-02-02T01:47:16;5.88;;;3.40;;
78148;SDS011;67396;42.664;23.382;2023-02-02T01:49:45;6.25;;;3.05;;
78148;SDS011;67396;42.664;23.382;2023-02-02T01:52:12;4.72;;;2.75;;
78148;SDS011;67396;42.664;23.382;2023-02-02T01:54:42;6.55;;;3.13;;
78148;SDS011;67396;42.664;23.382;2023-02-02T01:59:58;7.53;;;3.67;;
78148;SDS011;67396;42.664;23.382;2023-02-02T02:02:27;5.82;;;3.33;;
78148;SDS011;67396;42.664;23.382;2023-02-02T02:04:54;5.70;;;3.60;;
78148;SDS011;67396;42.664;23.382;2023-02-02T02:07:21;5.95;;;3.33;;
78148;SDS011;67396;42.664;23.382;2023-02-02T02:09:47;8.70;;;4.50;;
78148;SDS011;67396;42.664;23.382;2023-02-02T02:12:13;9.48;;;3.42;;
78148;SDS011;67396;42.664;23.382;2023-02-02T02:14:40;5.18;;;3.13;;
78148;SDS011;67396;42.664;23.382;2023-02-02T02:26:48;5.20;;;2.78;;
78148;SDS011;67396;42.664;23.382;2023-02-02T02:29:46;3.92;;;2.45;;
78148;SDS011;67396;42.664;23.382;2023-02-02T02:43:02;3.55;;;2.53;;
78148;SDS011;67396;42.664;23.382;2023-02-02T02:45:32;4.28;;;2.38;;
78148;SDS011;67396;42.664;23.382;2023-02-02T02:48:01;4.13;;;2.20;;
78148;SDS011;67396;42.664;23.382;2023-02-02T02:50:26;5.75;;;2.78;;
78148;SDS011;67396;42.664;23.382;2023-02-02T02:52:55;7.05;;;2.72;;
78148;SDS011;67396;42.664;23.382;2023-02-02T02:55:28;4.10;;;2.22;;
78148;SDS011;67396;42.664;23.382;2023-02-02T02:58:14;5.00;;;2.60;;
78148;SDS011;67396;42.664;23.382;2023-02-02T03:03:55;5.53;;;2.70;;
78148;SDS011;67396;42.664;23.382;2023-02-02T03:06:26;5.00;;;2.63;;
78148;SDS011;67396;42.664;23.382;2023-02-02T03:09:09;4.05;;;2.55;;
78148;SDS011;67396;42.664;23.382;2023-02-02T03:11:43;6.88;;;2.78;;
78148;SDS011;67396;42.664;23.382;2023-02-02T03:14:09;5.22;;;2.33;;
78148;SDS011;67396;42.664;23.382;2023-02-02T03:16:35;5.40;;;2.75;;
78148;SDS011;67396;42.664;23.382;2023-02-02T03:19:01;5.53;;;2.30;;
78148;SDS011;67396;42.664;23.382;2023-02-02T03:21:28;7.90;;;3.50;;
78148;SDS011;67396;42.664;23.382;2023-02-02T03:23:54;3.80;;;2.22;;
78148;SDS011;67396;42.664;23.382;2023-02-02T03:26:20;4.63;;;2.72;;
78148;SDS011;67396;42.664;23.382;2023-02-02T03:28:45;4.63;;;2.53;;
78148;SDS011;67396;42.664;23.382;2023-02-02T03:31:11;5.85;;;2.22;;
78148;SDS011;67396;42.664;23.382;2023-02-02T03:33:37;4.35;;;2.70;;
78148;SDS011;67396;42.664;23.382;2023-02-02T03:36:03;5.88;;;2.75;;
78148;SDS011;67396;42.664;23.382;2023-02-02T03:38:29;5.10;;;2.40;;
78148;SDS011;67396;42.664;23.382;2023-02-02T03:40:54;4.32;;;2.33;;
78148;SDS011;67396;42.664;23.382;2023-02-02T03:43:21;5.35;;;2.67;;
78148;SDS011;67396;42.664;23.382;2023-02-02T03:45:47;6.13;;;2.58;;
78148;SDS011;67396;42.664;23.382;2023-02-02T03:50:45;4.37;;;2.37;;
78148;SDS011;67396;42.664;23.382;2023-02-02T03:53:10;6.03;;;2.47;;
78148;SDS011;67396;42.664;23.382;2023-02-02T03:55:36;5.13;;;2.40;;
78148;SDS011;67396;42.664;23.382;2023-02-02T03:58:04;6.40;;;2.85;;
78148;SDS011;67396;42.664;23.382;2023-02-02T04:00:29;6.60;;;3.65;;
78148;SDS011;67396;42.664;23.382;2023-02-02T04:02:55;7.05;;;3.90;;
78148;SDS011;67396;42.664;23.382;2023-02-02T04:05:20;8.52;;;4.20;;
78148;SDS011;67396;42.664;23.382;2023-02-02T04:07:46;6.18;;;3.70;;
78148;SDS011;67396;42.664;23.382;2023-02-02T04:10:13;5.10;;;3.05;;
78148;SDS011;67396;42.664;23.382;2023-02-02T04:12:38;5.53;;;3.28;;
78148;SDS011;67396;42.664;23.382;2023-02-02T04:15:04;8.55;;;3.55;;
78148;SDS011;67396;42.664;23.382;2023-02-02T04:17:30;6.72;;;3.80;;
78148;SDS011;67396;42.664;23.382;2023-02-02T04:19:55;5.40;;;3.70;;
78148;SDS011;67396;42.664;23.382;2023-02-02T04:22:22;4.95;;;2.95;;
78148;SDS011;67396;42.664;23.382;2023-02-02T04:24:48;3.38;;;2.10;;
78148;SDS011;67396;42.664;23.382;2023-02-02T04:27:13;6.55;;;2.67;;
78148;SDS011;67396;42.664;23.382;2023-02-02T04:29:39;6.18;;;3.10;;
78148;SDS011;67396;42.664;23.382;2023-02-02T04:34:30;9.02;;;2.80;;
78148;SDS011;67396;42.664;23.382;2023-02-02T04:36:55;4.78;;;2.78;;
78148;SDS011;67396;42.664;23.382;2023-02-02T04:41:46;3.63;;;2.85;;
78148;SDS011;67396;42.664;23.382;2023-02-02T04:44:12;8.18;;;2.92;;
78148;SDS011;67396;42.664;23.382;2023-02-02T04:46:39;6.82;;;3.10;;
78148;SDS011;67396;42.664;23.382;2023-02-02T04:49:05;6.85;;;3.58;;
78148;SDS011;67396;42.664;23.382;2023-02-02T04:51:30;5.32;;;3.00;;
78148;SDS011;67396;42.664;23.382;2023-02-02T04:56:21;4.40;;;2.53;;
78148;SDS011;67396;42.664;23.382;2023-02-02T04:58:46;7.45;;;3.10;;
78148;SDS011;67396;42.664;23.382;2023-02-02T05:01:13;6.22;;;3.13;;
78148;SDS011;67396;42.664;23.382;2023-02-02T05:03:41;5.18;;;3.22;;
78148;SDS011;67396;42.664;23.382;2023-02-02T05:06:07;5.32;;;2.60;;
78148;SDS011;67396;42.664;23.382;2023-02-02T05:08:33;5.43;;;3.38;;
78148;SDS011;67396;42.664;23.382;2023-02-02T05:10:59;7.20;;;3.40;;
78148;SDS011;67396;42.664;23.382;2023-02-02T05:13:25;5.57;;;2.72;;
78148;SDS011;67396;42.664;23.382;2023-02-02T05:15:52;6.22;;;2.92;;
78148;SDS011;67396;42.664;23.382;2023-02-02T05:18:17;6.00;;;3.20;;
78148;SDS011;67396;42.664;23.382;2023-02-02T05:20:43;5.28;;;3.42;;
78148;SDS011;67396;42.664;23.382;2023-02-02T05:23:08;5.18;;;3.28;;
78148;SDS011;67396;42.664;23.382;2023-02-02T05:25:34;5.35;;;2.97;;
78148;SDS011;67396;42.664;23.382;2023-02-02T05:27:59;7.25;;;3.53;;
78148;SDS011;67396;42.664;23.382;2023-02-02T05:30:24;5.90;;;3.60;;
78148;SDS011;67396;42.664;23.382;2023-02-02T05:32:50;5.22;;;3.17;;
78148;SDS011;67396;42.664;23.382;2023-02-02T05:35:15;5.38;;;2.83;;
78148;SDS011;67396;42.664;23.382;2023-02-02T05:37:41;5.15;;;3.35;;
78148;SDS011;67396;42.664;23.382;2023-02-02T05:40:07;5.30;;;3.90;;
78148;SDS011;67396;42.664;23.382;2023-02-02T05:42:33;8.75;;;3.60;;
78148;SDS011;67396;42.664;23.382;2023-02-02T05:44:59;13.27;;;5.05;;
78148;SDS011;67396;42.664;23.382;2023-02-02T05:47:24;13.70;;;6.18;;
78148;SDS011;67396;42.664;23.382;2023-02-02T05:49:50;9.88;;;6.40;;
78148;SDS011;67396;42.664;23.382;2023-02-02T05:52:16;12.23;;;7.28;;
78148;SDS011;67396;42.664;23.382;2023-02-02T05:54:46;10.95;;;6.30;;
78148;SDS011;67396;42.664;23.382;2023-02-02T05:57:11;10.98;;;5.85;;
78148;SDS011;67396;42.664;23.382;2023-02-02T05:59:37;10.82;;;5.90;;
78148;SDS011;67396;42.664;23.382;2023-02-02T06:02:02;9.35;;;5.32;;
78148;SDS011;67396;42.664;23.382;2023-02-02T06:04:28;9.77;;;5.70;;
78148;SDS011;67396;42.664;23.382;2023-02-02T06:06:53;10.23;;;6.10;;
78148;SDS011;67396;42.664;23.382;2023-02-02T06:09:18;10.88;;;6.93;;
78148;SDS011;67396;42.664;23.382;2023-02-02T06:11:44;15.15;;;7.95;;
78148;SDS011;67396;42.664;23.382;2023-02-02T06:14:09;14.93;;;7.80;;
78148;SDS011;67396;42.664;23.382;2023-02-02T06:16:35;13.85;;;8.85;;
78148;SDS011;67396;42.664;23.382;2023-02-02T06:19:00;14.90;;;8.27;;
78148;SDS011;67396;42.664;23.382;2023-02-02T06:21:29;16.20;;;7.80;;
78148;SDS011;67396;42.664;23.382;2023-02-02T06:23:57;13.45;;;8.75;;
78148;SDS011;67396;42.664;23.382;2023-02-02T06:26:23;16.13;;;10.68;;
78148;SDS011;67396;42.664;23.382;2023-02-02T06:28:50;18.58;;;9.20;;
78148;SDS011;67396;42.664;23.382;2023-02-02T06:31:17;13.35;;;9.18;;
78148;SDS011;67396;42.664;23.382;2023-02-02T06:33:44;18.60;;;9.13;;
78148;SDS011;67396;42.664;23.382;2023-02-02T06:36:10;13.05;;;8.93;;
78148;SDS011;67396;42.664;23.382;2023-02-02T06:38:35;19.05;;;8.85;;
78148;SDS011;67396;42.664;23.382;2023-02-02T06:41:01;17.33;;;9.43;;
78148;SDS011;67396;42.664;23.382;2023-02-02T06:43:27;13.05;;;7.70;;
78148;SDS011;67396;42.664;23.382;2023-02-02T06:45:55;15.13;;;8.00;;
78148;SDS011;67396;42.664;23.382;2023-02-02T06:48:21;13.93;;;7.80;;
78148;SDS011;67396;42.664;23.382;2023-02-02T06:50:46;17.48;;;8.40;;
78148;SDS011;67396;42.664;23.382;2023-02-02T06:53:14;14.07;;;7.60;;
78148;SDS011;67396;42.664;23.382;2023-02-02T06:55:51;17.65;;;8.15;;
78148;SDS011;67396;42.664;23.382;2023-02-02T06:58:17;12.52;;;8.15;;
78148;SDS011;67396;42.664;23.382;2023-02-02T07:00:43;15.45;;;8.90;;
78148;SDS011;67396;42.664;23.382;2023-02-02T07:03:08;13.60;;;8.65;;
78148;SDS011;67396;42.664;23.382;2023-02-02T07:05:33;12.93;;;7.53;;
78148;SDS011;67396;42.664;23.382;2023-02-02T07:07:59;18.60;;;8.57;;
78148;SDS011;67396;42.664;23.382;2023-02-02T07:10:24;15.20;;;9.45;;
78148;SDS011;67396;42.664;23.382;2023-02-02T07:12:50;16.55;;;8.88;;
78148;SDS011;67396;42.664;23.382;2023-02-02T07:15:18;13.35;;;7.25;;
78148;SDS011;67396;42.664;23.382;2023-02-02T07:17:43;14.30;;;6.95;;
78148;SDS011;67396;42.664;23.382;2023-02-02T07:20:09;11.13;;;5.70;;
78148;SDS011;67396;42.664;23.382;2023-02-02T07:25:02;13.23;;;3.65;;
78148;SDS011;67396;42.664;23.382;2023-02-02T07:27:28;10.75;;;7.20;;
78148;SDS011;67396;42.664;23.382;2023-02-02T07:32:18;7.22;;;5.28;;
78148;SDS011;67396;42.664;23.382;2023-02-02T07:34:44;12.88;;;7.72;;
78148;SDS011;67396;42.664;23.382;2023-02-02T07:37:09;8.15;;;5.43;;
78148;SDS011;67396;42.664;23.382;2023-02-02T07:42:00;12.05;;;6.25;;
78148;SDS011;67396;42.664;23.382;2023-02-02T07:46:51;10.35;;;5.95;;
78148;SDS011;67396;42.664;23.382;2023-02-02T07:51:43;10.60;;;5.53;;
78148;SDS011;67396;42.664;23.382;2023-02-02T07:59:02;9.20;;;5.60;;
78148;SDS011;67396;42.664;23.382;2023-02-02T08:01:27;13.75;;;7.78;;
78148;SDS011;67396;42.664;23.382;2023-02-02T08:03:53;9.57;;;6.53;;
78148;SDS011;67396;42.664;23.382;2023-02-02T08:06:21;17.17;;;8.68;;
78148;SDS011;67396;42.664;23.382;2023-02-02T08:08:48;15.05;;;7.63;;
78148;SDS011;67396;42.664;23.382;2023-02-02T08:11:15;11.43;;;6.05;;
78148;SDS011;67396;42.664;23.382;2023-02-02T08:13:42;17.85;;;9.80;;
78148;SDS011;67396;42.664;23.382;2023-02-02T08:16:09;14.20;;;8.05;;
78148;SDS011;67396;42.664;23.382;2023-02-02T08:18:36;12.60;;;8.15;;
78148;SDS011;67396;42.664;23.382;2023-02-02T08:21:03;15.32;;;7.63;;
78148;SDS011;67396;42.664;23.382;2023-02-02T08:23:30;12.07;;;8.07;;
78148;SDS011;67396;42.664;23.382;2023-02-02T08:28:41;23.52;;;8.45;;
78148;SDS011;67396;42.664;23.382;2023-02-02T08:31:09;15.13;;;7.50;;
78148;SDS011;67396;42.664;23.382;2023-02-02T08:33:40;22.17;;;10.05;;
78148;SDS011;67396;42.664;23.382;2023-02-02T08:36:16;14.63;;;9.38;;
78148;SDS011;67396;42.664;23.382;2023-02-02T08:38:43;18.50;;;9.00;;
78148;SDS011;67396;42.664;23.382;2023-02-02T08:41:10;19.92;;;9.80;;
78148;SDS011;67396;42.664;23.382;2023-02-02T08:43:36;16.60;;;9.60;;
78148;SDS011;67396;42.664;23.382;2023-02-02T08:46:02;18.17;;;9.50;;
78148;SDS011;67396;42.664;23.382;2023-02-02T08:48:28;24.60;;;9.70;;
78148;SDS011;67396;42.664;23.382;2023-02-02T08:50:54;19.35;;;8.70;;
78148;SDS011;67396;42.664;23.382;2023-02-02T08:53:23;15.77;;;7.40;;
78148;SDS011;67396;42.664;23.382;2023-02-02T08:56:06;11.90;;;7.85;;
78148;SDS011;67396;42.664;23.382;2023-02-02T08:58:34;12.73;;;6.93;;
78148;SDS011;67396;42.664;23.382;2023-02-02T09:01:03;17.55;;;8.85;;
78148;SDS011;67396;42.664;23.382;2023-02-02T09:03:42;18.42;;;9.27;;
78148;SDS011;67396;42.664;23.382;2023-02-02T09:06:09;14.85;;;7.95;;
78148;SDS011;67396;42.664;23.382;2023-02-02T09:08:37;11.15;;;6.35;;
78148;SDS011;67396;42.664;23.382;2023-02-02T09:11:07;12.20;;;7.25;;
78148;SDS011;67396;42.664;23.382;2023-02-02T09:13:35;13.02;;;7.25;;
78148;SDS011;67396;42.664;23.382;2023-02-02T09:16:02;11.95;;;6.70;;
78148;SDS011;67396;42.664;23.382;2023-02-02T09:18:29;9.48;;;6.05;;
78148;SDS011;67396;42.664;23.382;2023-02-02T09:20:58;6.00;;;2.95;;
78148;SDS011;67396;42.664;23.382;2023-02-02T09:23:25;10.88;;;5.60;;
78148;SDS011;67396;42.664;23.382;2023-02-02T09:25:51;13.52;;;6.55;;
78148;SDS011;67396;42.664;23.382;2023-02-02T09:28:16;15.38;;;7.07;;
78148;SDS011;67396;42.664;23.382;2023-02-02T09:30:42;12.10;;;7.63;;
78148;SDS011;67396;42.664;23.382;2023-02-02T09:33:08;14.43;;;6.50;;
78148;SDS011;67396;42.664;23.382;2023-02-02T09:35:33;13.75;;;6.90;;
78148;SDS011;67396;42.664;23.382;2023-02-02T09:37:58;11.65;;;7.15;;
78148;SDS011;67396;42.664;23.382;2023-02-02T09:40:24;13.05;;;7.47;;
78148;SDS011;67396;42.664;23.382;2023-02-02T09:45:44;12.45;;;6.53;;
78148;SDS011;67396;42.664;23.382;2023-02-02T09:48:24;15.23;;;6.90;;
78148;SDS011;67396;42.664;23.382;2023-02-02T09:51:02;12.57;;;6.28;;
78148;SDS011;67396;42.664;23.382;2023-02-02T09:56:10;17.73;;;6.95;;
78148;SDS011;67396;42.664;23.382;2023-02-02T09:58:58;11.95;;;5.82;;
78148;SDS011;67396;42.664;23.382;2023-02-02T10:01:28;10.20;;;5.18;;
78148;SDS011;67396;42.664;23.382;2023-02-02T10:04:13;10.88;;;6.28;;
78148;SDS011;67396;42.664;23.382;2023-02-02T10:06:48;9.25;;;5.78;;
78148;SDS011;67396;42.664;23.382;2023-02-02T10:09:27;13.75;;;6.70;;
78148;SDS011;67396;42.664;23.382;2023-02-02T10:19:53;6.63;;;3.50;;
78148;SDS011;67396;42.664;23.382;2023-02-02T10:22:22;7.07;;;3.78;;
78148;SDS011;67396;42.664;23.382;2023-02-02T10:24:51;5.53;;;3.20;;
78148;SDS011;67396;42.664;23.382;2023-02-02T10:27:21;5.50;;;2.92;;
78148;SDS011;67396;42.664;23.382;2023-02-02T10:29:59;8.75;;;3.92;;
78148;SDS011;67396;42.664;23.382;2023-02-02T10:46:13;12.10;;;3.75;;
78148;SDS011;67396;42.664;23.382;2023-02-02T10:48:50;6.82;;;2.58;;
78148;SDS011;67396;42.664;23.382;2023-02-02T10:51:48;6.68;;;1.95;;
78148;SDS011;67396;42.664;23.382;2023-02-02T10:57:29;2.28;;;1.38;;
78148;SDS011;67396;42.664;23.382;2023-02-02T11:00:24;3.55;;;1.73;;
78148;SDS011;67396;42.664;23.382;2023-02-02T11:02:56;3.92;;;1.33;;
78148;SDS011;67396;42.664;23.382;2023-02-02T11:05:25;6.80;;;1.85;;
78148;SDS011;67396;42.664;23.382;2023-02-02T11:08:21;4.53;;;1.45;;
78148;SDS011;67396;42.664;23.382;2023-02-02T11:10:53;3.63;;;1.10;;
78148;SDS011;67396;42.664;23.382;2023-02-02T11:16:16;2.97;;;1.38;;
78148;SDS011;67396;42.664;23.382;2023-02-02T11:18:46;6.45;;;2.22;;
78148;SDS011;67396;42.664;23.382;2023-02-02T11:21:22;3.63;;;1.85;;
78148;SDS011;67396;42.664;23.382;2023-02-02T11:24:05;8.48;;;2.15;;
78148;SDS011;67396;42.664;23.382;2023-02-02T11:26:46;4.13;;;2.08;;
78148;SDS011;67396;42.664;23.382;2023-02-02T11:29:18;4.50;;;1.60;;
78148;SDS011;67396;42.664;23.382;2023-02-02T11:31:46;1.60;;;1.00;;
78148;SDS011;67396;42.664;23.382;2023-02-02T11:37:19;3.40;;;1.60;;
78148;SDS011;67396;42.664;23.382;2023-02-02T11:39:45;3.80;;;1.58;;
78148;SDS011;67396;42.664;23.382;2023-02-02T11:42:44;4.03;;;0.95;;
78148;SDS011;67396;42.664;23.382;2023-02-02T11:45:13;2.40;;;1.35;;
78148;SDS011;67396;42.664;23.382;2023-02-02T11:47:42;5.63;;;1.63;;
78148;SDS011;67396;42.664;23.382;2023-02-02T11:50:14;3.25;;;0.90;;
78148;SDS011;67396;42.664;23.382;2023-02-02T11:52:45;2.05;;;0.85;;
78148;SDS011;67396;42.664;23.382;2023-02-02T11:55:14;2.03;;;1.23;;
78148;SDS011;67396;42.664;23.382;2023-02-02T12:00:46;2.08;;;1.27;;
78148;SDS011;67396;42.664;23.382;2023-02-02T12:03:23;1.77;;;1.20;;
78148;SDS011;67396;42.664;23.382;2023-02-02T12:05:49;2.75;;;0.82;;
78148;SDS011;67396;42.664;23.382;2023-02-02T12:08:14;5.25;;;1.40;;
78148;SDS011;67396;42.664;23.382;2023-02-02T12:11:02;2.85;;;1.73;;
78148;SDS011;67396;42.664;23.382;2023-02-02T12:13:31;6.55;;;1.50;;
78148;SDS011;67396;42.664;23.382;2023-02-02T12:19:14;6.38;;;1.60;;
78148;SDS011;67396;42.664;23.382;2023-02-02T12:21:48;7.80;;;1.92;;
78148;SDS011;67396;42.664;23.382;2023-02-02T12:24:44;4.38;;;2.17;;
78148;SDS011;67396;42.664;23.382;2023-02-02T12:27:26;2.63;;;1.67;;
78148;SDS011;67396;42.664;23.382;2023-02-02T12:30:13;3.65;;;2.53;;
78148;SDS011;67396;42.664;23.382;2023-02-02T12:44:17;5.28;;;1.50;;
78148;SDS011;67396;42.664;23.382;2023-02-02T12:55:33;4.30;;;1.60;;
78148;SDS011;67396;42.664;23.382;2023-02-02T12:58:23;9.85;;;1.90;;
78148;SDS011;67396;42.664;23.382;2023-02-02T13:01:34;3.67;;;1.20;;
78148;SDS011;67396;42.664;23.382;2023-02-02T13:09:32;7.20;;;1.48;;
78148;SDS011;67396;42.664;23.382;2023-02-02T13:12:07;2.97;;;1.20;;
78148;SDS011;67396;42.664;23.382;2023-02-02T13:14:35;4.75;;;1.92;;
78148;SDS011;67396;42.664;23.382;2023-02-02T13:17:10;3.88;;;1.50;;
78148;SDS011;67396;42.664;23.382;2023-02-02T13:19:41;4.55;;;1.90;;
78148;SDS011;67396;42.664;23.382;2023-02-02T13:22:14;8.10;;;2.78;;
78148;SDS011;67396;42.664;23.382;2023-02-02T13:24:46;4.50;;;2.50;;
78148;SDS011;67396;42.664;23.382;2023-02-02T13:27:14;2.58;;;1.23;;
78148;SDS011;67396;42.664;23.382;2023-02-02T13:29:49;6.32;;;1.80;;
78148;SDS011;67396;42.664;23.382;2023-02-02T13:32:51;4.90;;;1.60;;
78148;SDS011;67396;42.664;23.382;2023-02-02T13:40:43;2.67;;;1.42;;
78148;SDS011;67396;42.664;23.382;2023-02-02T13:49:19;6.18;;;1.70;;
78148;SDS011;67396;42.664;23.382;2023-02-02T13:55:13;4.40;;;2.63;;
78148;SDS011;67396;42.664;23.382;2023-02-02T13:58:03;1.92;;;1.40;;
78148;SDS011;67396;42.664;23.382;2023-02-02T14:00:59;2.50;;;1.60;;
78148;SDS011;67396;42.664;23.382;2023-02-02T14:03:39;1.60;;;1.10;;
78148;SDS011;67396;42.664;23.382;2023-02-02T14:06:34;3.03;;;1.55;;
78148;SDS011;67396;42.664;23.382;2023-02-02T14:09:33;3.00;;;1.77;;
78148;SDS011;67396;42.664;23.382;2023-02-02T14:12:03;3.70;;;1.50;;
78148;SDS011;67396;42.664;23.382;2023-02-02T14:14:31;9.98;;;1.95;;
78148;SDS011;67396;42.664;23.382;2023-02-02T14:17:47;2.25;;;1.35;;
78148;SDS011;67396;42.664;23.382;2023-02-02T14:20:37;4.60;;;2.15;;
78148;SDS011;67396;42.664;23.382;2023-02-02T14:26:11;4.28;;;1.70;;
78148;SDS011;67396;42.664;23.382;2023-02-02T14:28:44;3.85;;;2.05;;
78148;SDS011;67396;42.664;23.382;2023-02-02T14:31:15;5.25;;;1.73;;
78148;SDS011;67396;42.664;23.382;2023-02-02T14:37:09;5.05;;;1.33;;
78148;SDS011;67396;42.664;23.382;2023-02-02T14:45:47;3.67;;;1.90;;
78148;SDS011;67396;42.664;23.382;2023-02-02T14:48:34;3.08;;;2.00;;
78148;SDS011;67396;42.664;23.382;2023-02-02T14:51:03;2.03;;;1.55;;
78148;SDS011;67396;42.664;23.382;2023-02-02T14:53:55;6.95;;;2.72;;
78148;SDS011;67396;42.664;23.382;2023-02-02T14:56:43;5.20;;;3.40;;
78148;SDS011;67396;42.664;23.382;2023-02-02T14:59:28;2.45;;;2.10;;
78148;SDS011;67396;42.664;23.382;2023-02-02T15:04:33;7.15;;;4.57;;
78148;SDS011;67396;42.664;23.382;2023-02-02T15:09:47;3.08;;;2.50;;
78148;SDS011;67396;42.664;23.382;2023-02-02T15:12:47;6.00;;;3.13;;
78148;SDS011;67396;42.664;23.382;2023-02-02T15:23:26;5.90;;;2.88;;
78148;SDS011;67396;42.664;23.382;2023-02-02T15:25:47;5.18;;;3.05;;
78148;SDS011;67396;42.664;23.382;2023-02-02T15:28:28;3.03;;;1.58;;
78148;SDS011;67396;42.664;23.382;2023-02-02T15:31:01;2.30;;;1.70;;
78148;SDS011;67396;42.664;23.382;2023-02-02T15:33:40;2.67;;;2.00;;
78148;SDS011;67396;42.664;23.382;2023-02-02T15:36:22;2.40;;;1.30;;
78148;SDS011;67396;42.664;23.382;2023-02-02T15:38:51;1.85;;;1.00;;
78148;SDS011;67396;42.664;23.382;2023-02-02T15:41:26;2.42;;;1.20;;
78148;SDS011;67396;42.664;23.382;2023-02-02T15:43:56;3.17;;;2.10;;
78148;SDS011;67396;42.664;23.382;2023-02-02T15:46:23;1.88;;;1.33;;
78148;SDS011;67396;42.664;23.382;2023-02-02T15:49:31;3.63;;;2.30;;
78148;SDS011;67396;42.664;23.382;2023-02-02T15:51:56;2.78;;;1.95;;
78148;SDS011;67396;42.664;23.382;2023-02-02T15:54:25;3.83;;;1.98;;
78148;SDS011;67396;42.664;23.382;2023-02-02T15:56:56;4.63;;;2.55;;
78148;SDS011;67396;42.664;23.382;2023-02-02T15:59:26;5.43;;;2.17;;
78148;SDS011;67396;42.664;23.382;2023-02-02T16:04:33;2.88;;;1.67;;
78148;SDS011;67396;42.664;23.382;2023-02-02T16:07:02;1.48;;;1.13;;
78148;SDS011;67396;42.664;23.382;2023-02-02T16:09:33;3.25;;;1.98;;
78148;SDS011;67396;42.664;23.382;2023-02-02T16:12:01;1.83;;;1.40;;
78148;SDS011;67396;42.664;23.382;2023-02-02T16:14:29;3.03;;;1.80;;
78148;SDS011;67396;42.664;23.382;2023-02-02T16:17:09;2.53;;;1.25;;
78148;SDS011;67396;42.664;23.382;2023-02-02T16:19:50;2.95;;;1.35;;
78148;SDS011;67396;42.664;23.382;2023-02-02T16:22:36;2.65;;;1.13;;
78148;SDS011;67396;42.664;23.382;2023-02-02T16:25:07;2.15;;;1.40;;
78148;SDS011;67396;42.664;23.382;2023-02-02T16:27:38;3.00;;;1.92;;
78148;SDS011;67396;42.664;23.382;2023-02-02T16:30:09;2.83;;;1.35;;
78148;SDS011;67396;42.664;23.382;2023-02-02T16:32:50;3.92;;;3.63;;
78148;SDS011;67396;42.664;23.382;2023-02-02T16:35:35;3.53;;;1.60;;
78148;SDS011;67396;42.664;23.382;2023-02-02T16:41:18;2.35;;;1.30;;
78148;SDS011;67396;42.664;23.382;2023-02-02T16:47:03;2.42;;;1.38;;
78148;SDS011;67396;42.664;23.382;2023-02-02T16:49:40;2.78;;;1.80;;
78148;SDS011;67396;42.664;23.382;2023-02-02T16:52:15;3.55;;;1.77;;
78148;SDS011;67396;42.664;23.382;2023-02-02T16:54:57;4.05;;;2.15;;
78148;SDS011;67396;42.664;23.382;2023-02-02T16:57:26;2.75;;;2.38;;
78148;SDS011;67396;42.664;23.382;2023-02-02T16:59:56;5.00;;;3.47;;
78148;SDS011;67396;42.664;23.382;2023-02-02T17:02:28;9.43;;;3.70;;
78148;SDS011;67396;42.664;23.382;2023-02-02T17:05:02;3.20;;;2.40;;
78148;SDS011;67396;42.664;23.382;2023-02-02T17:07:40;2.65;;;2.22;;
78148;SDS011;67396;42.664;23.382;2023-02-02T17:12:42;4.22;;;2.17;;
78148;SDS011;67396;42.664;23.382;2023-02-02T17:15:30;4.07;;;2.33;;
78148;SDS011;67396;42.664;23.382;2023-02-02T17:18:03;3.67;;;2.30;;
78148;SDS011;67396;42.664;23.382;2023-02-02T17:20:44;3.33;;;2.60;;
78148;SDS011;67396;42.664;23.382;2023-02-02T17:23:14;3.33;;;2.42;;
78148;SDS011;67396;42.664;23.382;2023-02-02T17:25:41;3.78;;;2.00;;
78148;SDS011;67396;42.664;23.382;2023-02-02T17:28:18;3.40;;;2.50;;
78148;SDS011;67396;42.664;23.382;2023-02-02T17:30:48;4.55;;;2.42;;
78148;SDS011;67396;42.664;23.382;2023-02-02T17:33:20;4.70;;;2.25;;
78148;SDS011;67396;42.664;23.382;2023-02-02T17:35:48;2.80;;;1.85;;
78148;SDS011;67396;42.664;23.382;2023-02-02T17:38:16;4.28;;;2.92;;
78148;SDS011;67396;42.664;23.382;2023-02-02T17:40:50;2.95;;;1.85;;
78148;SDS011;67396;42.664;23.382;2023-02-02T17:43:31;5.07;;;2.00;;
78148;SDS011;67396;42.664;23.382;2023-02-02T17:45:57;4.70;;;2.55;;
78148;SDS011;67396;42.664;23.382;2023-02-02T17:48:24;3.03;;;2.10;;
78148;SDS011;67396;42.664;23.382;2023-02-02T17:50:49;2.70;;;1.40;;